sensor_id;sensor_type;location;lat;lon;timestamp;P1;durP1;ratioP1;P2;durP2;ratioP2
14199;SDS011;7183;53.224;6.554;2022-10-31T03:49:35;58.63;;;29.23;;
14199;SDS011;7183;53.224;6.554;2022-10-31T03:52:05;51.50;;;25.07;;
14199;SDS011;7183;53.224;6.554;2022-10-31T03:54:40;35.70;;;20.13;;
14199;SDS011;7183;53.224;6.554;2022-10-31T03:57:11;37.77;;;20.93;;
14199;SDS011;7183;53.224;6.554;2022-10-31T03:59:47;46.67;;;22.03;;
14199;SDS011;7183;53.224;6.554;2022-10-31T04:02:18;41.00;;;21.83;;
14199;SDS011;7183;53.224;6.554;2022-10-31T04:04:52;36.47;;;20.57;;
14199;SDS011;7183;53.224;6.554;2022-10-31T04:07:20;43.63;;;26.23;;
14199;SDS011;7183;53.224;6.554;2022-10-31T04:09:49;42.83;;;21.93;;
14199;SDS011;7183;53.224;6.554;2022-10-31T04:12:19;41.30;;;23.90;;
14199;SDS011;7183;53.224;6.554;2022-10-31T04:14:49;39.83;;;20.07;;
14199;SDS011;7183;53.224;6.554;2022-10-31T04:17:18;42.80;;;24.87;;
14199;SDS011;7183;53.224;6.554;2022-10-31T04:19:49;50.10;;;25.67;;
14199;SDS011;7183;53.224;6.554;2022-10-31T04:22:19;40.80;;;22.23;;
14199;SDS011;7183;53.224;6.554;2022-10-31T04:24:46;37.33;;;22.20;;
14199;SDS011;7183;53.224;6.554;2022-10-31T04:27:13;31.90;;;17.53;;
14199;SDS011;7183;53.224;6.554;2022-10-31T04:29:42;46.40;;;23.57;;
14199;SDS011;7183;53.224;6.554;2022-10-31T04:32:11;45.20;;;23.77;;
14199;SDS011;7183;53.224;6.554;2022-10-31T04:34:42;42.03;;;23.07;;
14199;SDS011;7183;53.224;6.554;2022-10-31T04:37:12;37.70;;;20.77;;
14199;SDS011;7183;53.224;6.554;2022-10-31T04:39:43;35.23;;;18.53;;
14199;SDS011;7183;53.224;6.554;2022-10-31T04:42:10;41.00;;;23.17;;
14199;SDS011;7183;53.224;6.554;2022-10-31T04:44:37;42.33;;;22.67;;
14199;SDS011;7183;53.224;6.554;2022-10-31T04:47:04;33.63;;;19.10;;
14199;SDS011;7183;53.224;6.554;2022-10-31T04:49:31;30.37;;;18.47;;
14199;SDS011;7183;53.224;6.554;2022-10-31T04:51:59;38.73;;;22.60;;
14199;SDS011;7183;53.224;6.554;2022-10-31T04:54:26;36.67;;;22.10;;
14199;SDS011;7183;53.224;6.554;2022-10-31T04:56:55;29.73;;;17.47;;
14199;SDS011;7183;53.224;6.554;2022-10-31T04:59:22;26.67;;;17.07;;
14199;SDS011;7183;53.224;6.554;2022-10-31T05:01:49;29.60;;;18.17;;
14199;SDS011;7183;53.224;6.554;2022-10-31T05:04:16;25.60;;;17.30;;
14199;SDS011;7183;53.224;6.554;2022-10-31T05:06:43;21.07;;;13.67;;
14199;SDS011;7183;53.224;6.554;2022-10-31T05:09:10;18.90;;;13.10;;
14199;SDS011;7183;53.224;6.554;2022-10-31T05:11:37;14.53;;;10.97;;
14199;SDS011;7183;53.224;6.554;2022-10-31T05:14:06;22.83;;;14.10;;
14199;SDS011;7183;53.224;6.554;2022-10-31T05:16:34;17.97;;;14.17;;
14199;SDS011;7183;53.224;6.554;2022-10-31T05:19:01;13.97;;;10.97;;
14199;SDS011;7183;53.224;6.554;2022-10-31T05:21:28;20.70;;;13.53;;
14199;SDS011;7183;53.224;6.554;2022-10-31T05:23:55;26.37;;;18.33;;
14199;SDS011;7183;53.224;6.554;2022-10-31T05:26:22;33.63;;;19.07;;
14199;SDS011;7183;53.224;6.554;2022-10-31T05:28:50;24.90;;;15.63;;
14199;SDS011;7183;53.224;6.554;2022-10-31T05:31:18;25.17;;;16.03;;
14199;SDS011;7183;53.224;6.554;2022-10-31T05:33:45;28.10;;;17.67;;
14199;SDS011;7183;53.224;6.554;2022-10-31T05:36:12;25.33;;;16.93;;
14199;SDS011;7183;53.224;6.554;2022-10-31T05:38:39;18.73;;;14.17;;
14199;SDS011;7183;53.224;6.554;2022-10-31T05:41:06;26.43;;;16.60;;
14199;SDS011;7183;53.224;6.554;2022-10-31T05:43:34;25.90;;;15.07;;
14199;SDS011;7183;53.224;6.554;2022-10-31T05:46:02;20.93;;;13.73;;
14199;SDS011;7183;53.224;6.554;2022-10-31T05:48:30;16.40;;;11.63;;
14199;SDS011;7183;53.224;6.554;2022-10-31T05:50:57;20.70;;;14.83;;
14199;SDS011;7183;53.224;6.554;2022-10-31T05:53:24;23.63;;;14.43;;
14199;SDS011;7183;53.224;6.554;2022-10-31T05:55:52;20.90;;;15.33;;
14199;SDS011;7183;53.224;6.554;2022-10-31T05:58:19;20.30;;;13.80;;
14199;SDS011;7183;53.224;6.554;2022-10-31T06:00:46;17.13;;;11.50;;
14199;SDS011;7183;53.224;6.554;2022-10-31T06:03:13;17.27;;;11.50;;
14199;SDS011;7183;53.224;6.554;2022-10-31T06:05:42;15.60;;;11.80;;
14199;SDS011;7183;53.224;6.554;2022-10-31T06:08:09;23.17;;;15.20;;
14199;SDS011;7183;53.224;6.554;2022-10-31T06:10:36;20.77;;;15.20;;
14199;SDS011;7183;53.224;6.554;2022-10-31T06:13:05;21.30;;;13.97;;
14199;SDS011;7183;53.224;6.554;2022-10-31T06:15:32;19.80;;;11.67;;
14199;SDS011;7183;53.224;6.554;2022-10-31T06:18:00;24.60;;;15.63;;
14199;SDS011;7183;53.224;6.554;2022-10-31T06:20:28;23.47;;;15.17;;
14199;SDS011;7183;53.224;6.554;2022-10-31T06:22:57;22.90;;;14.70;;
14199;SDS011;7183;53.224;6.554;2022-10-31T06:25:24;18.73;;;12.83;;
14199;SDS011;7183;53.224;6.554;2022-10-31T06:27:52;18.70;;;12.37;;
14199;SDS011;7183;53.224;6.554;2022-10-31T06:30:19;23.83;;;10.73;;
14199;SDS011;7183;53.224;6.554;2022-10-31T06:32:46;29.00;;;11.43;;
14199;SDS011;7183;53.224;6.554;2022-10-31T06:35:14;22.10;;;10.90;;
14199;SDS011;7183;53.224;6.554;2022-10-31T06:37:41;37.50;;;12.53;;
14199;SDS011;7183;53.224;6.554;2022-10-31T06:40:11;67.33;;;15.00;;
14199;SDS011;7183;53.224;6.554;2022-10-31T06:42:38;25.87;;;14.47;;
14199;SDS011;7183;53.224;6.554;2022-10-31T06:45:05;23.17;;;14.97;;
14199;SDS011;7183;53.224;6.554;2022-10-31T06:47:33;26.07;;;14.83;;
14199;SDS011;7183;53.224;6.554;2022-10-31T06:50:00;31.33;;;14.30;;
14199;SDS011;7183;53.224;6.554;2022-10-31T06:52:27;24.20;;;16.23;;
14199;SDS011;7183;53.224;6.554;2022-10-31T06:54:54;21.87;;;18.97;;
14199;SDS011;7183;53.224;6.554;2022-10-31T06:57:22;35.47;;;16.77;;
14199;SDS011;7183;53.224;6.554;2022-10-31T06:59:49;17.77;;;14.17;;
14199;SDS011;7183;53.224;6.554;2022-10-31T07:02:17;17.07;;;14.37;;
14199;SDS011;7183;53.224;6.554;2022-10-31T07:04:44;23.57;;;18.40;;
14199;SDS011;7183;53.224;6.554;2022-10-31T07:07:11;18.47;;;15.60;;
14199;SDS011;7183;53.224;6.554;2022-10-31T07:09:38;21.07;;;15.50;;
14199;SDS011;7183;53.224;6.554;2022-10-31T07:12:05;19.20;;;17.10;;
14199;SDS011;7183;53.224;6.554;2022-10-31T07:14:33;43.03;;;18.90;;
14199;SDS011;7183;53.224;6.554;2022-10-31T07:17:00;79.67;;;20.10;;
14199;SDS011;7183;53.224;6.554;2022-10-31T07:19:27;74.47;;;19.73;;
14199;SDS011;7183;53.224;6.554;2022-10-31T07:21:54;73.30;;;22.13;;
14199;SDS011;7183;53.224;6.554;2022-10-31T07:24:22;50.57;;;23.10;;
14199;SDS011;7183;53.224;6.554;2022-10-31T07:26:49;24.77;;;19.13;;
14199;SDS011;7183;53.224;6.554;2022-10-31T07:29:16;23.13;;;17.90;;
14199;SDS011;7183;53.224;6.554;2022-10-31T07:31:46;18.70;;;16.00;;
14199;SDS011;7183;53.224;6.554;2022-10-31T07:34:13;30.03;;;20.60;;
14199;SDS011;7183;53.224;6.554;2022-10-31T07:36:40;57.00;;;25.07;;
14199;SDS011;7183;53.224;6.554;2022-10-31T07:39:07;80.63;;;27.07;;
14199;SDS011;7183;53.224;6.554;2022-10-31T07:41:34;95.23;;;27.40;;
14199;SDS011;7183;53.224;6.554;2022-10-31T07:44:01;51.47;;;26.53;;
14199;SDS011;7183;53.224;6.554;2022-10-31T07:46:28;147.97;;;27.57;;
14199;SDS011;7183;53.224;6.554;2022-10-31T07:48:56;95.10;;;28.93;;
14199;SDS011;7183;53.224;6.554;2022-10-31T07:51:23;43.53;;;22.27;;
14199;SDS011;7183;53.224;6.554;2022-10-31T07:53:51;28.47;;;22.60;;
14199;SDS011;7183;53.224;6.554;2022-10-31T07:56:18;136.63;;;30.43;;
14199;SDS011;7183;53.224;6.554;2022-10-31T07:58:45;44.43;;;26.93;;
14199;SDS011;7183;53.224;6.554;2022-10-31T08:01:12;127.80;;;29.93;;
14199;SDS011;7183;53.224;6.554;2022-10-31T08:03:39;41.20;;;26.47;;
14199;SDS011;7183;53.224;6.554;2022-10-31T08:06:07;44.73;;;27.00;;
14199;SDS011;7183;53.224;6.554;2022-10-31T08:08:34;29.60;;;24.47;;
14199;SDS011;7183;53.224;6.554;2022-10-31T08:11:02;23.47;;;19.83;;
14199;SDS011;7183;53.224;6.554;2022-10-31T08:13:29;25.40;;;21.93;;
14199;SDS011;7183;53.224;6.554;2022-10-31T08:15:57;22.40;;;17.97;;
14199;SDS011;7183;53.224;6.554;2022-10-31T08:18:28;22.70;;;16.83;;
14199;SDS011;7183;53.224;6.554;2022-10-31T08:20:56;27.43;;;20.83;;
14199;SDS011;7183;53.224;6.554;2022-10-31T08:23:24;25.77;;;19.33;;
14199;SDS011;7183;53.224;6.554;2022-10-31T08:25:51;18.20;;;16.30;;
14199;SDS011;7183;53.224;6.554;2022-10-31T08:28:18;19.70;;;17.70;;
14199;SDS011;7183;53.224;6.554;2022-10-31T08:30:45;20.50;;;16.83;;
14199;SDS011;7183;53.224;6.554;2022-10-31T08:33:13;20.97;;;18.07;;
14199;SDS011;7183;53.224;6.554;2022-10-31T08:35:43;24.00;;;19.03;;
14199;SDS011;7183;53.224;6.554;2022-10-31T08:38:11;23.73;;;18.47;;
14199;SDS011;7183;53.224;6.554;2022-10-31T08:40:40;21.93;;;18.60;;
14199;SDS011;7183;53.224;6.554;2022-10-31T08:43:08;21.67;;;18.43;;
14199;SDS011;7183;53.224;6.554;2022-10-31T08:45:37;22.00;;;19.13;;
14199;SDS011;7183;53.224;6.554;2022-10-31T08:48:06;23.33;;;19.83;;
14199;SDS011;7183;53.224;6.554;2022-10-31T08:50:36;23.27;;;20.77;;
14199;SDS011;7183;53.224;6.554;2022-10-31T08:53:04;28.13;;;21.97;;
14199;SDS011;7183;53.224;6.554;2022-10-31T08:55:32;26.23;;;21.97;;
14199;SDS011;7183;53.224;6.554;2022-10-31T08:58:02;22.33;;;20.03;;
14199;SDS011;7183;53.224;6.554;2022-10-31T09:00:30;27.87;;;21.53;;
14199;SDS011;7183;53.224;6.554;2022-10-31T09:02:57;26.77;;;20.97;;
14199;SDS011;7183;53.224;6.554;2022-10-31T09:05:25;22.77;;;19.90;;
14199;SDS011;7183;53.224;6.554;2022-10-31T09:07:54;23.73;;;21.23;;
14199;SDS011;7183;53.224;6.554;2022-10-31T09:10:22;23.67;;;20.17;;
14199;SDS011;7183;53.224;6.554;2022-10-31T09:12:54;28.30;;;21.97;;
14199;SDS011;7183;53.224;6.554;2022-10-31T09:15:23;25.93;;;22.00;;
14199;SDS011;7183;53.224;6.554;2022-10-31T09:17:50;28.97;;;22.87;;
14199;SDS011;7183;53.224;6.554;2022-10-31T09:20:17;28.33;;;22.83;;
14199;SDS011;7183;53.224;6.554;2022-10-31T09:22:44;27.43;;;22.13;;
14199;SDS011;7183;53.224;6.554;2022-10-31T09:25:12;33.43;;;23.87;;
14199;SDS011;7183;53.224;6.554;2022-10-31T09:27:39;26.90;;;23.43;;
14199;SDS011;7183;53.224;6.554;2022-10-31T09:30:06;27.87;;;22.93;;
14199;SDS011;7183;53.224;6.554;2022-10-31T09:32:35;30.43;;;23.73;;
14199;SDS011;7183;53.224;6.554;2022-10-31T09:35:02;28.80;;;23.93;;
14199;SDS011;7183;53.224;6.554;2022-10-31T09:37:30;30.50;;;23.83;;
14199;SDS011;7183;53.224;6.554;2022-10-31T09:39:57;30.80;;;23.47;;
14199;SDS011;7183;53.224;6.554;2022-10-31T09:45:18;31.40;;;24.83;;
14199;SDS011;7183;53.224;6.554;2022-10-31T09:47:56;32.27;;;24.73;;
14199;SDS011;7183;53.224;6.554;2022-10-31T09:50:37;33.87;;;25.87;;
14199;SDS011;7183;53.224;6.554;2022-10-31T09:53:08;30.77;;;24.07;;
14199;SDS011;7183;53.224;6.554;2022-10-31T09:55:49;27.13;;;22.00;;
14199;SDS011;7183;53.224;6.554;2022-10-31T09:58:19;29.47;;;22.33;;
14199;SDS011;7183;53.224;6.554;2022-10-31T10:00:49;27.03;;;21.13;;
14199;SDS011;7183;53.224;6.554;2022-10-31T10:03:21;29.00;;;21.20;;
14199;SDS011;7183;53.224;6.554;2022-10-31T10:05:57;31.50;;;22.00;;
14199;SDS011;7183;53.224;6.554;2022-10-31T10:08:30;29.83;;;22.57;;
14199;SDS011;7183;53.224;6.554;2022-10-31T10:11:01;23.30;;;19.07;;
14199;SDS011;7183;53.224;6.554;2022-10-31T10:13:49;27.50;;;21.17;;
14199;SDS011;7183;53.224;6.554;2022-10-31T10:16:37;27.43;;;21.17;;
14199;SDS011;7183;53.224;6.554;2022-10-31T10:19:19;28.17;;;21.80;;
14199;SDS011;7183;53.224;6.554;2022-10-31T10:21:55;27.37;;;20.73;;
14199;SDS011;7183;53.224;6.554;2022-10-31T10:24:32;29.07;;;19.83;;
14199;SDS011;7183;53.224;6.554;2022-10-31T10:27:11;27.37;;;20.20;;
14199;SDS011;7183;53.224;6.554;2022-10-31T10:29:44;29.07;;;20.37;;
14199;SDS011;7183;53.224;6.554;2022-10-31T10:32:17;30.53;;;21.93;;
14199;SDS011;7183;53.224;6.554;2022-10-31T10:34:51;27.47;;;19.77;;
14199;SDS011;7183;53.224;6.554;2022-10-31T10:37:24;28.50;;;19.30;;
14199;SDS011;7183;53.224;6.554;2022-10-31T10:39:56;28.87;;;20.17;;
14199;SDS011;7183;53.224;6.554;2022-10-31T10:42:31;29.07;;;20.23;;
14199;SDS011;7183;53.224;6.554;2022-10-31T10:45:17;25.23;;;18.60;;
14199;SDS011;7183;53.224;6.554;2022-10-31T10:48:05;26.67;;;21.10;;
14199;SDS011;7183;53.224;6.554;2022-10-31T10:50:40;28.70;;;19.37;;
14199;SDS011;7183;53.224;6.554;2022-10-31T10:53:14;25.07;;;19.83;;
14199;SDS011;7183;53.224;6.554;2022-10-31T10:56:15;24.27;;;16.23;;
14199;SDS011;7183;53.224;6.554;2022-10-31T10:58:47;25.20;;;16.93;;
14199;SDS011;7183;53.224;6.554;2022-10-31T11:01:15;23.07;;;17.87;;
14199;SDS011;7183;53.224;6.554;2022-10-31T11:03:42;25.40;;;18.73;;
14199;SDS011;7183;53.224;6.554;2022-10-31T11:06:20;23.80;;;17.73;;
14199;SDS011;7183;53.224;6.554;2022-10-31T11:08:51;24.07;;;18.30;;
14199;SDS011;7183;53.224;6.554;2022-10-31T11:11:25;27.20;;;17.67;;
14199;SDS011;7183;53.224;6.554;2022-10-31T11:13:57;21.70;;;16.10;;
14199;SDS011;7183;53.224;6.554;2022-10-31T11:16:29;22.50;;;15.60;;
14199;SDS011;7183;53.224;6.554;2022-10-31T11:19:06;21.97;;;16.13;;
14199;SDS011;7183;53.224;6.554;2022-10-31T11:21:36;18.50;;;14.10;;
14199;SDS011;7183;53.224;6.554;2022-10-31T11:24:04;23.53;;;15.00;;
14199;SDS011;7183;53.224;6.554;2022-10-31T11:26:41;23.27;;;13.63;;
14199;SDS011;7183;53.224;6.554;2022-10-31T11:29:12;19.67;;;13.67;;
14199;SDS011;7183;53.224;6.554;2022-10-31T11:31:41;17.17;;;13.60;;
14199;SDS011;7183;53.224;6.554;2022-10-31T11:34:12;19.10;;;12.90;;
14199;SDS011;7183;53.224;6.554;2022-10-31T11:36:46;20.53;;;13.73;;
14199;SDS011;7183;53.224;6.554;2022-10-31T11:39:16;21.70;;;14.03;;
14199;SDS011;7183;53.224;6.554;2022-10-31T11:41:45;21.87;;;14.20;;
14199;SDS011;7183;53.224;6.554;2022-10-31T11:44:14;21.43;;;13.57;;
14199;SDS011;7183;53.224;6.554;2022-10-31T11:46:44;17.97;;;12.40;;
14199;SDS011;7183;53.224;6.554;2022-10-31T11:49:15;22.97;;;14.83;;
14199;SDS011;7183;53.224;6.554;2022-10-31T11:51:49;18.67;;;11.77;;
14199;SDS011;7183;53.224;6.554;2022-10-31T11:54:20;14.97;;;11.03;;
14199;SDS011;7183;53.224;6.554;2022-10-31T11:56:49;14.53;;;8.10;;
14199;SDS011;7183;53.224;6.554;2022-10-31T11:59:24;12.57;;;7.17;;
14199;SDS011;7183;53.224;6.554;2022-10-31T12:01:54;15.57;;;7.07;;
14199;SDS011;7183;53.224;6.554;2022-10-31T12:04:24;18.40;;;7.67;;
14199;SDS011;7183;53.224;6.554;2022-10-31T12:07:03;15.53;;;7.63;;
14199;SDS011;7183;53.224;6.554;2022-10-31T12:09:32;13.77;;;7.67;;
14199;SDS011;7183;53.224;6.554;2022-10-31T12:12:05;15.50;;;8.20;;
14199;SDS011;7183;53.224;6.554;2022-10-31T12:14:55;14.53;;;6.83;;
14199;SDS011;7183;53.224;6.554;2022-10-31T12:17:36;12.17;;;7.33;;
14199;SDS011;7183;53.224;6.554;2022-10-31T12:20:11;14.47;;;6.77;;
14199;SDS011;7183;53.224;6.554;2022-10-31T12:22:51;9.20;;;5.27;;
14199;SDS011;7183;53.224;6.554;2022-10-31T12:25:27;14.13;;;6.83;;
14199;SDS011;7183;53.224;6.554;2022-10-31T12:28:11;12.00;;;6.67;;
14199;SDS011;7183;53.224;6.554;2022-10-31T12:30:54;13.97;;;7.80;;
14199;SDS011;7183;53.224;6.554;2022-10-31T12:33:42;16.30;;;6.73;;
14199;SDS011;7183;53.224;6.554;2022-10-31T12:39:15;11.40;;;7.80;;
14199;SDS011;7183;53.224;6.554;2022-10-31T12:41:51;11.47;;;7.37;;
14199;SDS011;7183;53.224;6.554;2022-10-31T12:44:27;13.47;;;8.17;;
14199;SDS011;7183;53.224;6.554;2022-10-31T12:47:11;15.37;;;8.00;;
14199;SDS011;7183;53.224;6.554;2022-10-31T12:49:56;11.03;;;6.63;;
14199;SDS011;7183;53.224;6.554;2022-10-31T12:52:42;12.63;;;5.80;;
14199;SDS011;7183;53.224;6.554;2022-10-31T12:55:24;11.17;;;6.17;;
14199;SDS011;7183;53.224;6.554;2022-10-31T12:58:14;11.97;;;5.90;;
14199;SDS011;7183;53.224;6.554;2022-10-31T13:00:48;12.83;;;6.60;;
14199;SDS011;7183;53.224;6.554;2022-10-31T13:03:22;17.50;;;7.20;;
14199;SDS011;7183;53.224;6.554;2022-10-31T13:05:53;15.60;;;6.70;;
14199;SDS011;7183;53.224;6.554;2022-10-31T13:08:26;10.63;;;7.20;;
14199;SDS011;7183;53.224;6.554;2022-10-31T13:11:01;20.77;;;8.00;;
14199;SDS011;7183;53.224;6.554;2022-10-31T13:13:33;18.33;;;8.70;;
14199;SDS011;7183;53.224;6.554;2022-10-31T13:16:09;13.70;;;8.63;;
14199;SDS011;7183;53.224;6.554;2022-10-31T13:18:42;16.73;;;9.20;;
14199;SDS011;7183;53.224;6.554;2022-10-31T13:21:12;20.23;;;9.67;;
14199;SDS011;7183;53.224;6.554;2022-10-31T13:23:44;16.37;;;10.20;;
14199;SDS011;7183;53.224;6.554;2022-10-31T13:26:18;15.37;;;8.90;;
14199;SDS011;7183;53.224;6.554;2022-10-31T13:28:50;14.90;;;9.63;;
14199;SDS011;7183;53.224;6.554;2022-10-31T13:31:22;15.83;;;10.37;;
14199;SDS011;7183;53.224;6.554;2022-10-31T13:33:49;21.17;;;10.03;;
14199;SDS011;7183;53.224;6.554;2022-10-31T13:36:23;17.37;;;10.77;;
14199;SDS011;7183;53.224;6.554;2022-10-31T13:38:58;13.23;;;9.93;;
14199;SDS011;7183;53.224;6.554;2022-10-31T13:41:36;22.37;;;9.67;;
14199;SDS011;7183;53.224;6.554;2022-10-31T13:44:11;14.90;;;9.23;;
14199;SDS011;7183;53.224;6.554;2022-10-31T13:46:41;14.33;;;9.03;;
14199;SDS011;7183;53.224;6.554;2022-10-31T13:49:23;15.10;;;8.17;;
14199;SDS011;7183;53.224;6.554;2022-10-31T13:52:05;15.07;;;8.00;;
14199;SDS011;7183;53.224;6.554;2022-10-31T13:54:43;12.30;;;7.63;;
14199;SDS011;7183;53.224;6.554;2022-10-31T13:57:19;14.13;;;7.43;;
14199;SDS011;7183;53.224;6.554;2022-10-31T13:59:51;17.47;;;8.37;;
14199;SDS011;7183;53.224;6.554;2022-10-31T14:02:22;13.80;;;8.13;;
14199;SDS011;7183;53.224;6.554;2022-10-31T14:04:54;13.55;;;8.50;;
14199;SDS011;7183;53.224;6.554;2022-10-31T14:07:24;17.90;;;9.50;;
14199;SDS011;7183;53.224;6.554;2022-10-31T14:09:54;17.70;;;10.02;;
14199;SDS011;7183;53.224;6.554;2022-10-31T14:12:26;18.60;;;10.00;;
14199;SDS011;7183;53.224;6.554;2022-10-31T14:14:57;19.23;;;10.33;;
14199;SDS011;7183;53.224;6.554;2022-10-31T14:17:31;16.97;;;9.87;;
14199;SDS011;7183;53.224;6.554;2022-10-31T14:23:10;18.83;;;10.50;;
14199;SDS011;7183;53.224;6.554;2022-10-31T14:25:51;23.03;;;11.23;;
14199;SDS011;7183;53.224;6.554;2022-10-31T14:28:21;18.10;;;11.73;;
14199;SDS011;7183;53.224;6.554;2022-10-31T14:30:52;33.63;;;13.13;;
14199;SDS011;7183;53.224;6.554;2022-10-31T14:33:20;21.83;;;12.23;;
14199;SDS011;7183;53.224;6.554;2022-10-31T14:35:51;20.17;;;11.43;;
14199;SDS011;7183;53.224;6.554;2022-10-31T14:38:26;26.13;;;11.90;;
14199;SDS011;7183;53.224;6.554;2022-10-31T14:41:22;17.17;;;10.97;;
14199;SDS011;7183;53.224;6.554;2022-10-31T14:44:04;21.23;;;10.83;;
14199;SDS011;7183;53.224;6.554;2022-10-31T14:47:01;16.17;;;10.40;;
14199;SDS011;7183;53.224;6.554;2022-10-31T14:49:43;21.02;;;10.93;;
14199;SDS011;7183;53.224;6.554;2022-10-31T14:52:36;17.23;;;9.83;;
14199;SDS011;7183;53.224;6.554;2022-10-31T14:55:05;17.97;;;9.23;;
14199;SDS011;7183;53.224;6.554;2022-10-31T14:57:37;20.70;;;10.03;;
14199;SDS011;7183;53.224;6.554;2022-10-31T15:00:15;27.93;;;11.10;;
14199;SDS011;7183;53.224;6.554;2022-10-31T15:02:46;28.08;;;10.15;;
14199;SDS011;7183;53.224;6.554;2022-10-31T15:05:22;22.20;;;9.33;;
14199;SDS011;7183;53.224;6.554;2022-10-31T15:07:50;25.50;;;9.53;;
14199;SDS011;7183;53.224;6.554;2022-10-31T15:10:21;16.83;;;8.80;;
14199;SDS011;7183;53.224;6.554;2022-10-31T15:12:50;15.80;;;8.53;;
14199;SDS011;7183;53.224;6.554;2022-10-31T15:15:20;16.60;;;8.77;;
14199;SDS011;7183;53.224;6.554;2022-10-31T15:17:51;17.77;;;9.13;;
14199;SDS011;7183;53.224;6.554;2022-10-31T15:20:20;17.50;;;8.80;;
14199;SDS011;7183;53.224;6.554;2022-10-31T15:22:51;17.60;;;9.07;;
14199;SDS011;7183;53.224;6.554;2022-10-31T15:25:21;18.70;;;8.63;;
14199;SDS011;7183;53.224;6.554;2022-10-31T15:27:50;15.23;;;8.13;;
14199;SDS011;7183;53.224;6.554;2022-10-31T15:30:21;16.50;;;8.47;;
14199;SDS011;7183;53.224;6.554;2022-10-31T15:32:49;14.47;;;8.23;;
14199;SDS011;7183;53.224;6.554;2022-10-31T15:35:20;15.37;;;7.50;;
14199;SDS011;7183;53.224;6.554;2022-10-31T15:37:49;16.93;;;8.43;;
14199;SDS011;7183;53.224;6.554;2022-10-31T15:40:18;12.97;;;7.47;;
14199;SDS011;7183;53.224;6.554;2022-10-31T15:42:48;18.33;;;8.10;;
14199;SDS011;7183;53.224;6.554;2022-10-31T15:45:20;12.67;;;7.63;;
14199;SDS011;7183;53.224;6.554;2022-10-31T15:47:52;17.90;;;8.37;;
14199;SDS011;7183;53.224;6.554;2022-10-31T15:50:24;15.30;;;7.70;;
14199;SDS011;7183;53.224;6.554;2022-10-31T15:52:55;13.30;;;7.93;;
14199;SDS011;7183;53.224;6.554;2022-10-31T15:55:23;12.07;;;7.43;;
14199;SDS011;7183;53.224;6.554;2022-10-31T15:57:53;17.70;;;7.03;;
14199;SDS011;7183;53.224;6.554;2022-10-31T16:00:26;11.50;;;6.53;;
14199;SDS011;7183;53.224;6.554;2022-10-31T16:03:04;12.17;;;6.40;;
14199;SDS011;7183;53.224;6.554;2022-10-31T16:05:36;11.83;;;6.80;;
14199;SDS011;7183;53.224;6.554;2022-10-31T16:08:04;13.93;;;6.97;;
14199;SDS011;7183;53.224;6.554;2022-10-31T16:10:52;12.47;;;6.93;;
14199;SDS011;7183;53.224;6.554;2022-10-31T16:13:21;9.60;;;6.83;;
14199;SDS011;7183;53.224;6.554;2022-10-31T16:15:54;14.50;;;7.13;;
14199;SDS011;7183;53.224;6.554;2022-10-31T16:18:24;13.00;;;7.17;;
14199;SDS011;7183;53.224;6.554;2022-10-31T16:20:52;13.00;;;7.17;;
14199;SDS011;7183;53.224;6.554;2022-10-31T16:23:21;11.27;;;6.80;;
14199;SDS011;7183;53.224;6.554;2022-10-31T16:25:51;12.67;;;7.27;;
14199;SDS011;7183;53.224;6.554;2022-10-31T16:28:18;10.20;;;7.50;;
14199;SDS011;7183;53.224;6.554;2022-10-31T16:30:49;12.90;;;8.03;;
14199;SDS011;7183;53.224;6.554;2022-10-31T16:33:22;12.77;;;8.03;;
14199;SDS011;7183;53.224;6.554;2022-10-31T16:35:52;13.60;;;8.70;;
14199;SDS011;7183;53.224;6.554;2022-10-31T16:38:19;12.97;;;8.80;;
14199;SDS011;7183;53.224;6.554;2022-10-31T16:40:47;12.13;;;8.20;;
14199;SDS011;7183;53.224;6.554;2022-10-31T16:43:15;12.13;;;8.60;;
14199;SDS011;7183;53.224;6.554;2022-10-31T16:45:44;16.60;;;10.20;;
14199;SDS011;7183;53.224;6.554;2022-10-31T16:48:12;14.60;;;9.60;;
14199;SDS011;7183;53.224;6.554;2022-10-31T16:50:42;17.63;;;10.63;;
14199;SDS011;7183;53.224;6.554;2022-10-31T16:53:12;17.73;;;10.03;;
14199;SDS011;7183;53.224;6.554;2022-10-31T16:55:42;15.70;;;10.53;;
14199;SDS011;7183;53.224;6.554;2022-10-31T16:58:13;20.07;;;11.83;;
14199;SDS011;7183;53.224;6.554;2022-10-31T17:00:43;18.43;;;11.20;;
14199;SDS011;7183;53.224;6.554;2022-10-31T17:03:11;16.90;;;12.43;;
14199;SDS011;7183;53.224;6.554;2022-10-31T17:05:38;16.50;;;11.80;;
14199;SDS011;7183;53.224;6.554;2022-10-31T17:08:06;18.30;;;13.00;;
14199;SDS011;7183;53.224;6.554;2022-10-31T17:10:33;21.83;;;13.33;;
14199;SDS011;7183;53.224;6.554;2022-10-31T17:13:01;19.73;;;13.37;;
14199;SDS011;7183;53.224;6.554;2022-10-31T17:15:31;20.73;;;14.43;;
14199;SDS011;7183;53.224;6.554;2022-10-31T17:18:04;23.60;;;14.57;;
14199;SDS011;7183;53.224;6.554;2022-10-31T17:20:31;22.80;;;15.00;;
14199;SDS011;7183;53.224;6.554;2022-10-31T17:22:58;18.73;;;14.03;;
14199;SDS011;7183;53.224;6.554;2022-10-31T17:25:28;19.73;;;15.30;;
14199;SDS011;7183;53.224;6.554;2022-10-31T17:27:56;22.63;;;16.07;;
14199;SDS011;7183;53.224;6.554;2022-10-31T17:30:24;22.60;;;16.20;;
14199;SDS011;7183;53.224;6.554;2022-10-31T17:32:51;25.80;;;17.37;;
14199;SDS011;7183;53.224;6.554;2022-10-31T17:35:19;25.53;;;19.13;;
14199;SDS011;7183;53.224;6.554;2022-10-31T17:37:47;28.07;;;19.27;;
14199;SDS011;7183;53.224;6.554;2022-10-31T17:40:16;26.03;;;19.77;;
14199;SDS011;7183;53.224;6.554;2022-10-31T17:42:50;32.60;;;20.83;;
14199;SDS011;7183;53.224;6.554;2022-10-31T17:45:18;30.53;;;20.83;;
14199;SDS011;7183;53.224;6.554;2022-10-31T17:47:46;28.70;;;22.00;;
14199;SDS011;7183;53.224;6.554;2022-10-31T17:50:14;33.13;;;22.10;;
14199;SDS011;7183;53.224;6.554;2022-10-31T17:52:41;32.30;;;22.20;;
14199;SDS011;7183;53.224;6.554;2022-10-31T17:55:08;35.70;;;23.37;;
14199;SDS011;7183;53.224;6.554;2022-10-31T17:57:36;34.90;;;25.93;;
14199;SDS011;7183;53.224;6.554;2022-10-31T18:00:07;34.07;;;24.10;;
14199;SDS011;7183;53.224;6.554;2022-10-31T18:02:36;32.37;;;24.83;;
14199;SDS011;7183;53.224;6.554;2022-10-31T18:05:03;32.77;;;25.47;;
14199;SDS011;7183;53.224;6.554;2022-10-31T18:07:31;34.67;;;26.60;;
14199;SDS011;7183;53.224;6.554;2022-10-31T18:09:58;39.13;;;27.07;;
14199;SDS011;7183;53.224;6.554;2022-10-31T18:12:25;36.87;;;25.93;;
14199;SDS011;7183;53.224;6.554;2022-10-31T18:14:53;37.70;;;27.47;;
14199;SDS011;7183;53.224;6.554;2022-10-31T18:17:21;34.90;;;26.03;;
14199;SDS011;7183;53.224;6.554;2022-10-31T18:19:49;40.03;;;26.73;;
14199;SDS011;7183;53.224;6.554;2022-10-31T18:22:16;41.03;;;25.70;;
14199;SDS011;7183;53.224;6.554;2022-10-31T18:24:43;38.07;;;26.43;;
14199;SDS011;7183;53.224;6.554;2022-10-31T18:27:10;39.50;;;27.40;;
14199;SDS011;7183;53.224;6.554;2022-10-31T18:29:37;41.10;;;28.27;;
14199;SDS011;7183;53.224;6.554;2022-10-31T18:32:04;38.00;;;26.13;;
14199;SDS011;7183;53.224;6.554;2022-10-31T18:34:34;39.03;;;26.30;;
14199;SDS011;7183;53.224;6.554;2022-10-31T18:37:02;42.03;;;29.87;;
14199;SDS011;7183;53.224;6.554;2022-10-31T18:39:29;46.17;;;29.60;;
14199;SDS011;7183;53.224;6.554;2022-10-31T18:41:56;47.10;;;30.37;;
14199;SDS011;7183;53.224;6.554;2022-10-31T18:44:23;45.97;;;32.90;;
14199;SDS011;7183;53.224;6.554;2022-10-31T18:46:50;52.07;;;33.47;;
14199;SDS011;7183;53.224;6.554;2022-10-31T18:49:17;49.73;;;32.10;;
14199;SDS011;7183;53.224;6.554;2022-10-31T18:51:48;52.83;;;32.20;;
14199;SDS011;7183;53.224;6.554;2022-10-31T18:54:15;45.00;;;31.37;;
14199;SDS011;7183;53.224;6.554;2022-10-31T18:56:42;47.53;;;30.73;;